Time;durP1;ratioP1;P1;durP2;ratioP2;P2;SDS_P1;SDS_P2;PMS_P1;PMS_P2;Temp;Humidity;BMP_temperature;BMP_pressure;BME280_temperature;BME280_humidity;BME280_pressure;Samples;Min_cycle;Max_cycle;Signal;HPM_P1;HPM_P2
2021/06/05 00:02:29;;;;;;;1.30;1.10;;;11.30;99.90;;;;;;5049619;28;20377;-82
2021/06/05 00:04:59;;;;;;;2.03;0.90;;;11.30;99.90;;;;;;5050111;28;20451;-81
2021/06/05 00:07:27;;;;;;;4.30;1.00;;;11.30;99.90;;;;;;5069899;28;20443;-82
2021/06/05 00:09:55;;;;;;;1.48;0.80;;;11.20;99.90;;;;;;5070317;28;20414;-82
2021/06/05 00:12:28;;;;;;;2.95;1.00;;;11.30;99.90;;;;;;5070020;28;20378;-81
2021/06/05 00:14:56;;;;;;;4.07;1.20;;;11.70;99.90;;;;;;5069991;28;20378;-82
2021/06/05 00:17:24;;;;;;;2.60;1.20;;;12.00;99.90;;;;;;5069302;28;20410;-82
2021/06/05 00:19:51;;;;;;;1.85;0.95;;;12.40;99.90;;;;;;5070068;28;20417;-81
2021/06/05 00:22:19;;;;;;;3.42;1.35;;;12.50;99.90;;;;;;5070092;28;20406;-82
2021/06/05 00:24:46;;;;;;;1.73;0.90;;;12.80;99.90;;;;;;5064024;28;20743;-80
2021/06/05 00:27:13;;;;;;;4.00;1.35;;;12.80;99.90;;;;;;5050988;28;20890;-82
2021/06/05 00:29:41;;;;;;;2.45;1.10;;;12.80;99.90;;;;;;5068155;28;20424;-82
2021/06/05 00:32:08;;;;;;;5.27;1.47;;;12.60;99.90;;;;;;5068832;28;20390;-81
2021/06/05 00:34:35;;;;;;;2.17;1.30;;;12.40;99.90;;;;;;5069435;28;20424;-83
2021/06/05 00:37:02;;;;;;;5.97;1.10;;;12.20;99.90;;;;;;5069583;28;20362;-81
2021/06/05 00:39:29;;;;;;;3.53;1.37;;;12.10;99.90;;;;;;5069573;28;20450;-81
2021/06/05 00:41:56;;;;;;;2.60;1.33;;;12.00;99.90;;;;;;5068703;28;20420;-82
2021/06/05 00:44:23;;;;;;;2.05;1.30;;;12.00;99.90;;;;;;5069394;28;20379;-82
2021/06/05 00:46:50;;;;;;;2.50;1.30;;;11.90;99.90;;;;;;5068406;28;20386;-81
2021/06/05 00:49:17;;;;;;;1.25;1.08;;;12.00;99.90;;;;;;5052980;28;20856;-81
2021/06/05 00:51:49;;;;;;;3.00;0.93;;;12.00;99.90;;;;;;5049392;28;20415;-81
2021/06/05 00:54:18;;;;;;;2.67;1.30;;;12.00;99.90;;;;;;5049357;28;20533;-81
2021/06/05 00:56:50;;;;;;;2.40;1.15;;;12.10;99.90;;;;;;5049369;28;20418;-82
2021/06/05 00:59:18;;;;;;;2.85;1.30;;;12.10;99.90;;;;;;5063624;28;20469;-81
2021/06/05 01:01:45;;;;;;;3.17;1.60;;;12.10;99.90;;;;;;5060971;28;20376;-81
2021/06/05 01:04:12;;;;;;;3.70;1.80;;;12.10;99.90;;;;;;5060245;28;20404;-80
2021/06/05 01:06:51;;;;;;;2.53;1.67;;;12.10;99.90;;;;;;5054342;28;20443;-82
2021/06/05 01:09:30;;;;;;;3.08;1.88;;;12.10;99.90;;;;;;5048686;28;20403;-82
2021/06/05 01:12:27;;;;;;;4.63;1.85;;;12.20;99.90;;;;;;5049033;28;20467;-82
2021/06/05 01:15:13;;;;;;;2.92;2.20;;;12.10;99.90;;;;;;5019979;28;20755;-81
2021/06/05 01:17:47;;;;;;;4.90;2.30;;;12.10;99.90;;;;;;5067401;28;20374;-82
2021/06/05 01:20:24;;;;;;;3.40;2.10;;;12.10;99.90;;;;;;5056969;28;20458;-81
2021/06/05 01:23:21;;;;;;;3.10;2.08;;;12.10;99.90;;;;;;5048949;28;20471;-82
2021/06/05 01:26:07;;;;;;;2.93;1.70;;;12.20;99.90;;;;;;5008615;28;20407;-80
2021/06/05 01:28:50;;;;;;;3.17;1.40;;;12.30;99.90;;;;;;5058863;28;20426;-82
2021/06/05 01:31:28;;;;;;;3.40;1.50;;;12.20;99.60;;;;;;5063767;28;20389;-79
2021/06/05 01:33:56;;;;;;;4.13;1.52;;;12.30;99.90;;;;;;5063118;28;20411;-80
2021/06/05 01:36:25;;;;;;;2.90;1.25;;;12.30;99.90;;;;;;5047333;28;21005;-80
2021/06/05 01:38:58;;;;;;;4.00;1.20;;;12.40;99.90;;;;;;5048918;28;20388;-80
2021/06/05 01:41:28;;;;;;;2.22;1.10;;;12.50;99.80;;;;;;5048730;28;20567;-80
2021/06/05 01:43:55;;;;;;;3.00;1.00;;;12.50;99.40;;;;;;5048738;28;20641;-81
2021/06/05 01:46:27;;;;;;;2.72;0.93;;;12.60;99.40;;;;;;5047607;28;20735;-80
2021/06/05 01:48:54;;;;;;;4.97;0.88;;;12.60;99.30;;;;;;5063568;28;20389;-79
2021/06/05 01:51:22;;;;;;;2.20;1.10;;;12.70;99.10;;;;;;5067345;28;20524;-81
2021/06/05 01:53:56;;;;;;;2.63;0.70;;;12.70;99.50;;;;;;5068545;28;20421;-80
2021/06/05 01:56:38;;;;;;;1.30;0.70;;;12.70;98.60;;;;;;5066621;28;20442;-78
2021/06/05 01:59:07;;;;;;;0.95;0.68;;;12.80;99.30;;;;;;5067670;28;20378;-80
2021/06/05 02:01:34;;;;;;;1.90;0.80;;;12.90;98.80;;;;;;5054476;28;20402;-80
2021/06/05 02:04:01;;;;;;;3.20;0.60;;;12.90;97.80;;;;;;5048511;28;20692;-80
2021/06/05 02:06:28;;;;;;;2.33;0.70;;;12.90;97.30;;;;;;5054041;28;20749;-80
2021/06/05 02:08:57;;;;;;;1.40;0.60;;;12.90;97.20;;;;;;5048826;28;20379;-79
2021/06/05 02:11:27;;;;;;;2.00;0.70;;;13.00;97.00;;;;;;5051742;28;20742;-78
2021/06/05 02:14:05;;;;;;;1.30;0.45;;;12.90;96.90;;;;;;5048314;28;20411;-78
2021/06/05 02:16:41;;;;;;;1.40;0.50;;;12.90;95.70;;;;;;5048840;28;20391;-79
2021/06/05 02:19:17;;;;;;;1.27;0.50;;;12.90;96.00;;;;;;5048408;28;20380;-78
2021/06/05 02:21:46;;;;;;;3.30;0.50;;;12.90;96.40;;;;;;5047287;28;20513;-78
2021/06/05 02:24:26;;;;;;;1.45;0.52;;;13.10;95.40;;;;;;5053386;28;20952;-79
2021/06/05 02:26:54;;;;;;;0.70;0.40;;;13.20;95.30;;;;;;5070217;28;20382;-79
2021/06/05 02:29:24;;;;;;;0.50;0.40;;;13.10;94.80;;;;;;5071723;28;20374;-79
2021/06/05 02:31:51;;;;;;;0.93;0.40;;;13.10;93.80;;;;;;5052488;28;20375;-79
2021/06/05 02:34:24;;;;;;;1.33;0.50;;;13.00;93.20;;;;;;5050791;28;20415;-80
2021/06/05 02:36:54;;;;;;;1.20;0.60;;;13.00;95.00;;;;;;5052959;28;20427;-79
2021/06/05 02:39:22;;;;;;;1.27;0.60;;;13.10;94.70;;;;;;5069913;28;20449;-79
2021/06/05 02:41:51;;;;;;;1.40;0.60;;;13.20;94.50;;;;;;5052566;28;20382;-80
2021/06/05 02:44:21;;;;;;;1.35;0.60;;;13.20;93.90;;;;;;5058912;28;21524;-78
2021/06/05 02:46:49;;;;;;;1.67;0.60;;;13.10;94.20;;;;;;5056204;28;20415;-80
2021/06/05 02:49:18;;;;;;;1.88;0.65;;;13.10;94.00;;;;;;5063011;28;20386;-80
2021/06/05 02:51:50;;;;;;;3.10;0.90;;;13.20;95.20;;;;;;5069254;28;20842;-79
2021/06/05 02:54:20;;;;;;;1.20;0.63;;;13.20;95.60;;;;;;5068933;28;20394;-79
2021/06/05 02:56:48;;;;;;;2.35;0.90;;;13.30;94.50;;;;;;5068662;28;20391;-80
2021/06/05 02:59:17;;;;;;;1.85;0.60;;;13.30;94.70;;;;;;5071433;28;20408;-79
2021/06/05 03:01:44;;;;;;;1.55;0.65;;;13.40;95.30;;;;;;5071877;28;20409;-80
2021/06/05 03:04:12;;;;;;;2.10;0.60;;;13.40;94.80;;;;;;5066628;28;20410;-78
2021/06/05 03:06:39;;;;;;;1.52;0.60;;;13.40;95.60;;;;;;5069447;28;20532;-80
2021/06/05 03:09:09;;;;;;;1.65;0.52;;;13.40;94.60;;;;;;5055411;28;20488;-80
2021/06/05 03:11:36;;;;;;;1.95;0.57;;;13.50;94.80;;;;;;5070915;28;20386;-80
2021/06/05 03:14:03;;;;;;;1.97;0.50;;;13.50;95.00;;;;;;5063194;28;20396;-80
2021/06/05 03:16:32;;;;;;;1.13;0.30;;;13.60;93.60;;;;;;5063106;28;20446;-80
2021/06/05 03:18:59;;;;;;;1.20;0.50;;;13.60;93.70;;;;;;5051131;28;20380;-80
2021/06/05 03:21:26;;;;;;;1.45;0.50;;;13.70;93.10;;;;;;5062574;28;20397;-79
2021/06/05 03:24:02;;;;;;;2.70;0.50;;;13.70;94.20;;;;;;5066174;28;20402;-79
2021/06/05 03:26:29;;;;;;;1.55;0.40;;;13.70;94.40;;;;;;5067254;28;20849;-80
2021/06/05 03:28:56;;;;;;;2.10;0.60;;;13.80;93.10;;;;;;5053672;28;20384;-82
2021/06/05 03:31:24;;;;;;;2.42;0.70;;;13.80;93.60;;;;;;5051482;28;20427;-80
2021/06/05 03:33:52;;;;;;;1.95;0.60;;;13.80;94.30;;;;;;5055571;28;20479;-78
2021/06/05 03:36:22;;;;;;;2.05;0.90;;;13.80;93.70;;;;;;5061188;28;20480;-79
2021/06/05 03:38:50;;;;;;;1.83;0.50;;;13.80;94.00;;;;;;5059966;28;20522;-80
2021/06/05 03:41:17;;;;;;;1.23;0.63;;;13.90;93.90;;;;;;5067173;28;20484;-79
2021/06/05 03:43:44;;;;;;;2.30;0.80;;;13.80;94.20;;;;;;5050575;28;20395;-80
2021/06/05 03:46:11;;;;;;;2.38;0.80;;;13.80;93.90;;;;;;5050728;28;20788;-79
2021/06/05 03:48:39;;;;;;;1.48;0.75;;;13.80;94.30;;;;;;5055906;28;20397;-79
2021/06/05 03:51:10;;;;;;;1.90;0.82;;;13.80;94.30;;;;;;5061915;28;20503;-79
2021/06/05 03:53:38;;;;;;;2.40;0.70;;;13.80;94.20;;;;;;5066143;28;20815;-81
2021/06/05 03:56:05;;;;;;;0.98;0.70;;;13.80;95.10;;;;;;5070367;28;20378;-80
2021/06/05 03:58:39;;;;;;;2.05;0.70;;;13.90;94.90;;;;;;5070093;28;20383;-80
2021/06/05 04:01:27;;;;;;;2.15;0.60;;;13.90;94.90;;;;;;5069688;28;20382;-79
2021/06/05 04:03:58;;;;;;;3.00;0.60;;;13.90;94.80;;;;;;5072853;28;20441;-79
2021/06/05 04:06:26;;;;;;;2.00;0.80;;;13.90;95.00;;;;;;5064998;28;20373;-80
2021/06/05 04:08:55;;;;;;;2.70;0.80;;;13.90;95.30;;;;;;5062631;28;20430;-79
2021/06/05 04:11:23;;;;;;;1.05;0.60;;;13.90;95.00;;;;;;5061669;28;20390;-80
2021/06/05 04:13:50;;;;;;;3.17;0.80;;;13.80;95.00;;;;;;5069452;28;20406;-80
2021/06/05 04:16:18;;;;;;;0.85;0.55;;;13.90;94.10;;;;;;5065255;28;20751;-80
2021/06/05 04:18:45;;;;;;;1.95;0.70;;;13.90;94.20;;;;;;5069001;28;20409;-80
2021/06/05 04:21:17;;;;;;;1.40;0.60;;;13.90;94.50;;;;;;5068991;28;20456;-81
2021/06/05 04:23:44;;;;;;;0.50;0.50;;;13.90;95.10;;;;;;5057587;28;20410;-81
2021/06/05 04:26:11;;;;;;;1.60;0.60;;;13.90;95.30;;;;;;5059638;28;20791;-83
2021/06/05 04:28:38;;;;;;;1.10;0.60;;;13.80;94.80;;;;;;5069867;28;20386;-81
2021/06/05 04:31:07;;;;;;;3.23;0.80;;;13.90;95.20;;;;;;5069666;28;20470;-82
2021/06/05 04:33:35;;;;;;;1.20;0.70;;;13.90;95.40;;;;;;5069813;28;20422;-81
2021/06/05 04:36:07;;;;;;;1.60;0.60;;;13.90;95.00;;;;;;5061513;28;20466;-83
2021/06/05 04:38:39;;;;;;;1.30;0.70;;;13.90;95.00;;;;;;5048798;28;21113;-83
2021/06/05 04:41:07;;;;;;;1.60;0.88;;;13.80;95.60;;;;;;5049652;28;20380;-82
2021/06/05 04:43:35;;;;;;;1.70;0.70;;;13.80;95.40;;;;;;5050308;28;20372;-81
2021/06/05 04:46:03;;;;;;;1.60;0.70;;;13.80;95.40;;;;;;5067111;28;21190;-83
2021/06/05 04:48:30;;;;;;;1.05;0.60;;;13.70;95.50;;;;;;5049289;28;20376;-82
2021/06/05 04:50:58;;;;;;;2.20;1.00;;;13.70;95.80;;;;;;5049496;28;20735;-81
2021/06/05 04:53:25;;;;;;;1.80;0.70;;;13.80;96.00;;;;;;5049511;28;20400;-83
2021/06/05 04:55:53;;;;;;;1.00;0.43;;;13.80;96.10;;;;;;5049570;28;20896;-83
2021/06/05 04:58:21;;;;;;;1.20;0.70;;;13.70;96.00;;;;;;5069274;28;20401;-83
2021/06/05 05:00:52;;;;;;;1.73;0.68;;;13.60;96.20;;;;;;5069217;28;20520;-84
2021/06/05 05:03:23;;;;;;;2.10;0.65;;;13.50;96.70;;;;;;5069808;28;20382;-83
2021/06/05 05:05:52;;;;;;;1.50;0.40;;;13.50;97.10;;;;;;5068699;28;20390;-82
2021/06/05 05:08:20;;;;;;;1.67;0.60;;;13.50;97.30;;;;;;5056640;28;20431;-82
2021/06/05 05:10:51;;;;;;;1.20;0.40;;;13.50;96.20;;;;;;5049336;28;20386;-83
2021/06/05 05:13:32;;;;;;;1.40;0.65;;;13.50;97.20;;;;;;5049222;28;20395;-84
2021/06/05 05:16:00;;;;;;;0.87;0.50;;;13.50;97.40;;;;;;5062487;28;20393;-83
2021/06/05 05:18:28;;;;;;;0.93;0.50;;;13.50;97.30;;;;;;5069310;28;20453;-82
2021/06/05 05:20:56;;;;;;;2.80;0.43;;;13.40;97.10;;;;;;5055585;28;20410;-83
2021/06/05 05:23:29;;;;;;;1.75;0.55;;;13.30;97.80;;;;;;5048925;28;20417;-84
2021/06/05 05:26:00;;;;;;;0.93;0.38;;;13.30;98.60;;;;;;5060843;28;20386;-82
2021/06/05 05:28:28;;;;;;;1.70;0.57;;;13.20;97.90;;;;;;5048857;28;20369;-82
2021/06/05 05:30:56;;;;;;;0.80;0.65;;;13.10;99.40;;;;;;5048885;28;20372;-82
2021/06/05 05:33:24;;;;;;;1.13;0.95;;;13.00;99.70;;;;;;5049138;28;20423;-82
2021/06/05 05:35:55;;;;;;;2.92;0.85;;;12.90;99.90;;;;;;5048777;28;20459;-82
2021/06/05 05:38:22;;;;;;;1.83;0.90;;;12.90;99.70;;;;;;5049093;28;20404;-82
2021/06/05 05:40:50;;;;;;;0.70;0.70;;;12.90;99.90;;;;;;5048785;28;20778;-82
2021/06/05 05:43:18;;;;;;;1.20;0.90;;;12.90;99.50;;;;;;5048867;28;20384;-82
2021/06/05 05:45:45;;;;;;;1.83;0.57;;;12.90;99.90;;;;;;5047529;28;20461;-82
2021/06/05 05:48:13;;;;;;;0.98;0.68;;;12.90;99.80;;;;;;5065877;28;20386;-82
2021/06/05 05:50:42;;;;;;;0.95;0.63;;;12.90;99.90;;;;;;5068736;28;20892;-82
2021/06/05 05:53:10;;;;;;;0.80;0.80;;;12.80;99.90;;;;;;5068734;28;20532;-82
2021/06/05 05:55:37;;;;;;;1.35;0.75;;;12.80;99.90;;;;;;5068854;28;20461;-82
2021/06/05 05:58:10;;;;;;;1.00;0.40;;;12.80;99.90;;;;;;5052697;28;20391;-82
2021/06/05 06:00:39;;;;;;;1.30;0.60;;;12.80;99.90;;;;;;5048846;28;20367;-82
2021/06/05 06:03:07;;;;;;;0.45;0.45;;;12.80;99.90;;;;;;5052878;28;20371;-82
2021/06/05 06:05:35;;;;;;;2.38;0.80;;;12.70;99.90;;;;;;5052733;28;20466;-82
2021/06/05 06:08:04;;;;;;;1.80;0.63;;;12.60;99.90;;;;;;5058256;28;20474;-82
2021/06/05 06:10:31;;;;;;;1.70;0.60;;;12.60;99.90;;;;;;5052675;28;20472;-81
2021/06/05 06:12:58;;;;;;;1.30;0.90;;;12.50;99.90;;;;;;5052576;28;20414;-81
2021/06/05 06:15:28;;;;;;;1.67;0.52;;;12.40;99.90;;;;;;5052413;28;20404;-81
2021/06/05 06:17:56;;;;;;;1.20;0.80;;;12.40;99.90;;;;;;5066096;28;20394;-82
2021/06/05 06:20:40;;;;;;;1.60;0.50;;;12.40;99.90;;;;;;5072456;28;20389;-82
2021/06/05 06:23:07;;;;;;;0.65;0.57;;;12.40;99.90;;;;;;5072490;28;20378;-81
2021/06/05 06:25:39;;;;;;;0.95;0.43;;;12.30;99.90;;;;;;5072518;28;20381;-82
2021/06/05 06:28:08;;;;;;;1.80;0.77;;;12.30;99.90;;;;;;5071351;28;20429;-81
2021/06/05 06:30:37;;;;;;;2.35;0.95;;;12.20;99.90;;;;;;5070932;28;20779;-81
2021/06/05 06:33:09;;;;;;;0.90;0.85;;;12.20;99.90;;;;;;5072500;28;20738;-81
2021/06/05 06:35:37;;;;;;;1.38;0.95;;;12.10;99.90;;;;;;5071584;28;20378;-81
2021/06/05 06:38:07;;;;;;;3.70;1.00;;;12.00;99.90;;;;;;5072116;28;20808;-81
2021/06/05 06:40:36;;;;;;;0.75;0.70;;;11.90;99.90;;;;;;5055999;28;20395;-82
2021/06/05 06:43:04;;;;;;;1.40;0.80;;;11.90;99.90;;;;;;5052143;28;20380;-81
2021/06/05 06:45:31;;;;;;;1.33;0.68;;;11.80;99.90;;;;;;5057262;28;20394;-82
2021/06/05 06:47:58;;;;;;;1.00;0.90;;;11.80;99.90;;;;;;5070612;28;20899;-82
2021/06/05 06:50:29;;;;;;;3.97;0.95;;;11.70;99.90;;;;;;5053704;28;20387;-82
2021/06/05 06:52:57;;;;;;;2.97;1.02;;;11.60;99.90;;;;;;5051671;28;20396;-82
2021/06/05 06:55:25;;;;;;;1.20;0.88;;;11.50;99.90;;;;;;5051813;28;20408;-82
2021/06/05 06:57:53;;;;;;;2.03;0.90;;;11.40;99.90;;;;;;5051643;28;20402;-82
2021/06/05 07:00:31;;;;;;;4.57;1.10;;;11.30;99.90;;;;;;5066123;28;20398;-82
2021/06/05 07:02:58;;;;;;;1.83;1.00;;;11.30;99.90;;;;;;5058857;28;20423;-82
2021/06/05 07:05:26;;;;;;;1.70;0.80;;;11.20;99.90;;;;;;5051733;28;20429;-82
2021/06/05 07:08:05;;;;;;;2.88;1.38;;;11.10;99.90;;;;;;5051401;28;20380;-82
2021/06/05 07:10:32;;;;;;;1.65;1.25;;;11.00;99.90;;;;;;5068592;28;20394;-82
2021/06/05 07:12:59;;;;;;;3.00;2.05;;;10.90;99.90;;;;;;5070964;28;20404;-82
2021/06/05 07:15:26;;;;;;;6.13;4.50;;;10.80;99.90;;;;;;5071178;28;20378;-82
2021/06/05 07:17:53;;;;;;;8.27;5.30;;;10.70;99.90;;;;;;5071284;28;20378;-82
2021/06/05 07:20:20;;;;;;;6.43;5.65;;;10.70;99.90;;;;;;5053880;28;20824;-82
2021/06/05 07:22:48;;;;;;;6.97;6.27;;;10.60;99.90;;;;;;5050959;28;20394;-82
2021/06/05 07:25:15;;;;;;;6.88;5.97;;;10.50;99.90;;;;;;5051024;28;20382;-82
2021/06/05 07:27:42;;;;;;;6.38;5.60;;;10.50;99.90;;;;;;5053884;28;20400;-83
2021/06/05 07:30:10;;;;;;;8.07;7.28;;;10.50;99.90;;;;;;5069603;28;20896;-82
2021/06/05 07:32:37;;;;;;;8.90;7.55;;;10.40;99.90;;;;;;5071067;28;20779;-82
2021/06/05 07:35:05;;;;;;;7.35;6.30;;;10.40;99.90;;;;;;5069407;28;20443;-82
2021/06/05 07:37:33;;;;;;;4.15;2.63;;;10.40;99.90;;;;;;5070568;28;20721;-82
2021/06/05 07:40:06;;;;;;;4.97;2.85;;;10.30;99.90;;;;;;5050797;28;20384;-82
2021/06/05 07:42:34;;;;;;;3.90;2.53;;;10.30;99.90;;;;;;5050681;28;20938;-82
2021/06/05 07:45:03;;;;;;;3.50;2.80;;;10.30;99.90;;;;;;5050380;28;20384;-82
2021/06/05 07:47:30;;;;;;;3.63;2.80;;;10.30;99.90;;;;;;5050451;28;20384;-82
2021/06/05 07:49:57;;;;;;;3.33;2.67;;;10.20;99.90;;;;;;5068117;28;20386;-82
2021/06/05 07:52:24;;;;;;;3.60;2.70;;;10.20;99.90;;;;;;5070419;28;20416;-82
2021/06/05 07:54:53;;;;;;;3.95;3.58;;;10.10;99.90;;;;;;5070575;28;20491;-82
2021/06/05 07:57:22;;;;;;;11.07;7.90;;;10.10;99.90;;;;;;5070629;28;20461;-82
2021/06/05 07:59:49;;;;;;;7.38;4.20;;;10.00;99.90;;;;;;5053566;28;20394;-82
2021/06/05 08:02:17;;;;;;;5.17;3.37;;;10.00;99.90;;;;;;5051867;28;20392;-82
2021/06/05 08:04:44;;;;;;;4.68;3.60;;;10.00;99.90;;;;;;5051764;28;20835;-82
2021/06/05 08:07:11;;;;;;;9.75;8.18;;;10.00;99.90;;;;;;5050354;28;20787;-82
2021/06/05 08:09:38;;;;;;;5.65;4.50;;;10.00;99.90;;;;;;5051159;28;20778;-82
2021/06/05 08:12:07;;;;;;;4.70;4.13;;;10.00;99.90;;;;;;5059392;28;20947;-82
2021/06/05 08:14:34;;;;;;;6.00;5.40;;;10.00;99.90;;;;;;5070067;28;20406;-82
2021/06/05 08:17:02;;;;;;;8.52;6.63;;;9.90;99.90;;;;;;5070032;28;20461;-82
2021/06/05 08:19:29;;;;;;;8.53;6.40;;;9.90;99.90;;;;;;5069949;28;20860;-82
2021/06/05 08:21:56;;;;;;;7.88;6.63;;;10.00;99.90;;;;;;5051492;28;20441;-82
2021/06/05 08:24:23;;;;;;;8.27;6.97;;;10.00;99.90;;;;;;5055124;28;20390;-81
2021/06/05 08:26:52;;;;;;;9.80;6.82;;;10.10;99.90;;;;;;5062373;28;20923;-81
2021/06/05 08:29:19;;;;;;;7.70;6.83;;;10.10;99.90;;;;;;5062886;28;20495;-81
2021/06/05 08:31:49;;;;;;;15.52;12.43;;;10.00;99.90;;;;;;5060955;28;20402;-81
2021/06/05 08:34:17;;;;;;;10.55;9.23;;;9.90;99.90;;;;;;5064672;28;20448;-80
2021/06/05 08:36:45;;;;;;;9.38;6.53;;;9.80;99.90;;;;;;5060595;28;20395;-81
2021/06/05 08:39:13;;;;;;;21.47;17.07;;;9.80;99.90;;;;;;5062617;28;20810;-82
2021/06/05 08:41:46;;;;;;;31.30;23.58;;;9.70;99.90;;;;;;5068992;28;20413;-80
2021/06/05 08:44:28;;;;;;;14.55;12.10;;;9.60;99.90;;;;;;5064098;28;20435;-81
2021/06/05 08:47:00;;;;;;;16.85;12.23;;;9.30;99.90;;;;;;5062402;28;20400;-81
2021/06/05 08:49:36;;;;;;;23.58;19.95;;;9.20;99.90;;;;;;5060476;28;20841;-81
2021/06/05 08:52:11;;;;;;;41.53;35.73;;;9.10;99.90;;;;;;5053598;28;20433;-81
2021/06/05 08:54:45;;;;;;;31.95;26.75;;;9.10;99.90;;;;;;5067006;28;20406;-79
2021/06/05 08:57:41;;;;;;;28.70;23.48;;;9.10;99.90;;;;;;5067653;28;20414;-80
2021/06/05 09:00:19;;;;;;;11.20;8.40;;;9.20;99.90;;;;;;5046039;28;20398;-80
2021/06/05 09:02:49;;;;;;;15.95;12.30;;;9.20;99.90;;;;;;5049638;28;20392;-81
2021/06/05 09:05:20;;;;;;;11.98;9.32;;;9.20;99.90;;;;;;5049216;28;20850;-81
2021/06/05 09:07:47;;;;;;;9.40;6.38;;;9.30;99.90;;;;;;5049252;28;20391;-81
2021/06/05 09:10:18;;;;;;;10.17;5.63;;;9.30;99.90;;;;;;5054913;28;20502;-81
2021/06/05 09:12:45;;;;;;;6.73;5.57;;;9.30;99.90;;;;;;5058139;28;20490;-81
2021/06/05 09:15:33;;;;;;;6.15;5.55;;;9.50;99.90;;;;;;5066442;28;20483;-81
2021/06/05 09:18:03;;;;;;;8.23;6.73;;;9.60;99.90;;;;;;5067211;28;20414;-81
2021/06/05 09:20:41;;;;;;;12.23;8.60;;;9.60;99.90;;;;;;5063566;28;20413;-80
2021/06/05 09:23:26;;;;;;;12.48;9.85;;;9.60;99.90;;;;;;5065263;28;20439;-80
2021/06/05 09:25:54;;;;;;;11.95;8.80;;;9.60;99.90;;;;;;5063676;28;20400;-81
2021/06/05 09:28:31;;;;;;;10.32;8.43;;;9.50;99.90;;;;;;5051934;28;20378;-80
2021/06/05 09:31:18;;;;;;;11.93;6.87;;;9.40;99.90;;;;;;5048818;28;20411;-80
2021/06/05 09:33:47;;;;;;;8.98;6.72;;;9.30;99.90;;;;;;5056064;28;20438;-80
2021/06/05 09:36:23;;;;;;;7.65;5.53;;;9.30;99.90;;;;;;5068739;28;20857;-81
2021/06/05 09:38:59;;;;;;;27.37;19.53;;;9.20;99.90;;;;;;5075339;28;20469;-80
2021/06/05 09:41:38;;;;;;;19.27;14.88;;;9.10;99.90;;;;;;5075335;28;20372;-79
2021/06/05 09:44:27;;;;;;;16.90;13.40;;;9.00;99.90;;;;;;5069302;28;20395;-81
2021/06/05 09:47:01;;;;;;;16.63;12.57;;;8.90;99.90;;;;;;5071519;28;20408;-80
2021/06/05 09:49:35;;;;;;;21.38;16.33;;;8.80;99.90;;;;;;5072701;28;20470;-80
2021/06/05 09:52:28;;;;;;;20.73;16.30;;;8.80;99.90;;;;;;5068567;28;20485;-81
2021/06/05 09:55:20;;;;;;;19.38;16.00;;;8.70;99.90;;;;;;5065861;28;20934;-81
2021/06/05 09:57:50;;;;;;;21.65;16.30;;;8.60;99.90;;;;;;5071056;28;20866;-80
2021/06/05 10:00:23;;;;;;;34.25;25.00;;;8.60;99.90;;;;;;5067182;28;20870;-81
2021/06/05 10:02:57;;;;;;;26.75;19.20;;;8.50;99.90;;;;;;5071312;28;20405;-81
2021/06/05 10:05:38;;;;;;;30.20;21.17;;;8.50;99.90;;;;;;5070101;28;20370;-81
2021/06/05 10:08:39;;;;;;;12.68;10.18;;;8.50;99.90;;;;;;5061951;28;20389;-80
2021/06/05 10:11:29;;;;;;;9.23;6.82;;;8.50;99.90;;;;;;5066134;28;20743;-80
2021/06/05 10:14:08;;;;;;;10.55;7.20;;;8.60;99.90;;;;;;5064397;28;21088;-80
2021/06/05 10:16:39;;;;;;;9.02;7.10;;;8.60;99.90;;;;;;5071383;28;20402;-80
2021/06/05 10:19:38;;;;;;;7.53;6.40;;;8.60;99.90;;;;;;5066412;28;20393;-80
2021/06/05 10:22:07;;;;;;;8.53;6.73;;;8.60;99.90;;;;;;5058829;28;20425;-82
2021/06/05 10:24:40;;;;;;;9.00;7.40;;;8.60;99.90;;;;;;5074428;28;20417;-81
2021/06/05 10:27:11;;;;;;;9.38;7.47;;;8.60;99.90;;;;;;5071779;28;20828;-81
2021/06/05 10:30:06;;;;;;;11.90;9.50;;;8.50;99.90;;;;;;5064974;28;20380;-80
2021/06/05 10:32:39;;;;;;;8.70;6.82;;;8.40;99.90;;;;;;5044570;28;20421;-81
2021/06/05 10:35:30;;;;;;;10.38;7.70;;;8.40;99.90;;;;;;5064919;28;20404;-80
2021/06/05 10:38:33;;;;;;;8.55;6.82;;;8.40;99.90;;;;;;5071057;28;20435;-79
2021/06/05 10:41:00;;;;;;;8.77;5.57;;;8.40;99.90;;;;;;5064303;28;20424;-80
2021/06/05 10:43:27;;;;;;;6.90;5.13;;;8.40;99.90;;;;;;5074352;28;20872;-80
2021/06/05 10:45:57;;;;;;;7.30;5.65;;;8.40;99.90;;;;;;5074766;28;20397;-81
2021/06/05 10:48:43;;;;;;;5.88;4.78;;;8.30;99.90;;;;;;5064767;28;20408;-80
2021/06/05 10:51:26;;;;;;;7.35;4.03;;;8.40;99.90;;;;;;5070502;28;20823;-80
2021/06/05 10:54:07;;;;;;;5.57;4.15;;;8.30;99.90;;;;;;5071616;28;20504;-80
2021/06/05 10:56:43;;;;;;;5.63;4.10;;;8.30;99.90;;;;;;5069184;28;20447;-80
2021/06/05 10:59:46;;;;;;;6.55;4.20;;;8.30;99.90;;;;;;5065410;28;20386;-81
2021/06/05 11:02:47;;;;;;;5.85;4.05;;;8.30;99.90;;;;;;5064471;28;20907;-81
2021/06/05 11:05:18;;;;;;;5.57;3.50;;;8.30;99.90;;;;;;5058188;28;20398;-80
2021/06/05 11:08:08;;;;;;;5.03;3.53;;;8.30;99.90;;;;;;5060283;28;20404;-80
2021/06/05 11:11:11;;;;;;;5.00;3.30;;;8.30;99.90;;;;;;5058910;28;20475;-81
2021/06/05 11:13:41;;;;;;;5.03;3.60;;;8.30;99.90;;;;;;5015139;28;20519;-81
2021/06/05 11:16:17;;;;;;;3.22;2.78;;;8.30;99.90;;;;;;5050113;28;22407;-80
2021/06/05 11:18:59;;;;;;;3.72;3.08;;;8.30;99.90;;;;;;5057388;28;20397;-80
2021/06/05 11:21:28;;;;;;;4.53;3.10;;;8.30;99.90;;;;;;5058575;28;21051;-80
2021/06/05 11:23:58;;;;;;;4.20;3.40;;;8.30;99.90;;;;;;5056782;28;20407;-80
2021/06/05 11:26:40;;;;;;;5.95;3.17;;;8.30;99.90;;;;;;5060202;28;20401;-80
2021/06/05 11:29:27;;;;;;;4.65;3.67;;;8.20;99.90;;;;;;5057985;28;20405;-80
2021/06/05 11:31:58;;;;;;;4.88;3.47;;;8.20;99.90;;;;;;5058058;28;20432;-80
2021/06/05 11:34:34;;;;;;;4.50;3.17;;;8.20;99.90;;;;;;5058116;28;20402;-81
2021/06/05 11:37:03;;;;;;;4.53;3.03;;;8.30;99.90;;;;;;5063737;28;20414;-81
2021/06/05 11:39:30;;;;;;;4.22;2.60;;;8.40;99.90;;;;;;5067287;28;20402;-80
2021/06/05 11:42:00;;;;;;;3.35;3.00;;;8.40;99.90;;;;;;5070778;28;20382;-80
2021/06/05 11:44:41;;;;;;;4.50;2.47;;;8.40;99.90;;;;;;5058841;28;20397;-80
2021/06/05 11:47:28;;;;;;;2.88;2.30;;;8.40;99.90;;;;;;5058281;28;20396;-80
2021/06/05 11:50:19;;;;;;;4.45;2.80;;;8.40;99.90;;;;;;5041497;28;20401;-81
2021/06/05 11:52:51;;;;;;;4.13;3.50;;;8.50;99.90;;;;;;5067410;28;20385;-81
2021/06/05 11:55:36;;;;;;;3.50;2.97;;;8.40;99.90;;;;;;5054418;28;20418;-81
2021/06/05 11:58:12;;;;;;;4.00;3.08;;;8.30;99.90;;;;;;5054865;28;20867;-81
2021/06/05 12:00:46;;;;;;;5.07;3.55;;;8.20;99.90;;;;;;5057466;28;20397;-81
2021/06/05 12:03:43;;;;;;;4.87;3.20;;;8.10;99.90;;;;;;5049838;28;20471;-81
2021/06/05 12:06:28;;;;;;;4.63;3.60;;;8.00;99.90;;;;;;5062351;28;20397;-81
2021/06/05 12:09:07;;;;;;;4.75;3.72;;;7.90;99.90;;;;;;5060774;28;20408;-81
2021/06/05 12:11:55;;;;;;;4.03;3.43;;;7.80;99.90;;;;;;5061299;28;20394;-81
2021/06/05 12:17:34;;;;;;;5.60;4.20;;;7.80;99.90;;;;;;5067998;28;20450;-83
2021/06/05 12:20:11;;;;;;;6.07;4.03;;;7.90;99.90;;;;;;5046792;28;20402;-81
2021/06/05 12:22:40;;;;;;;4.03;3.63;;;7.90;99.90;;;;;;5060964;28;20396;-81
2021/06/05 12:25:21;;;;;;;4.85;3.67;;;7.90;99.90;;;;;;5062970;28;20398;-81
2021/06/05 12:27:49;;;;;;;3.87;3.50;;;7.90;99.90;;;;;;5066477;28;20443;-81
2021/06/05 12:30:29;;;;;;;3.90;3.38;;;7.90;99.90;;;;;;5059639;28;20803;-81
2021/06/05 12:33:08;;;;;;;4.22;3.35;;;7.80;99.90;;;;;;5066802;28;20817;-81
2021/06/05 12:35:38;;;;;;;3.58;3.00;;;7.80;99.90;;;;;;5069103;28;20413;-81
2021/06/05 12:38:08;;;;;;;4.28;2.83;;;7.80;99.90;;;;;;5074224;28;20402;-82
2021/06/05 12:40:45;;;;;;;3.33;2.35;;;7.80;99.90;;;;;;5068456;28;20398;-82
2021/06/05 12:43:17;;;;;;;3.53;2.95;;;7.80;99.90;;;;;;5067436;28;20412;-82
2021/06/05 12:45:44;;;;;;;3.90;2.88;;;7.90;99.90;;;;;;5068062;28;20433;-83
2021/06/05 12:48:16;;;;;;;3.08;2.78;;;7.90;99.90;;;;;;5055549;28;20400;-82
2021/06/05 12:50:45;;;;;;;3.40;2.40;;;7.90;99.90;;;;;;5062412;28;20508;-82
2021/06/05 12:53:20;;;;;;;2.70;2.10;;;8.00;99.90;;;;;;5059325;28;21140;-82
2021/06/05 12:55:54;;;;;;;3.42;2.40;;;8.00;99.90;;;;;;5063368;28;20908;-82
2021/06/05 12:58:44;;;;;;;2.35;1.90;;;8.00;99.90;;;;;;5053452;28;20382;-83
2021/06/05 13:01:39;;;;;;;2.92;2.08;;;8.00;99.90;;;;;;5062680;28;20386;-82
2021/06/05 13:04:24;;;;;;;4.85;2.00;;;8.00;99.90;;;;;;5061096;28;20408;-83
2021/06/05 13:07:05;;;;;;;2.42;1.95;;;8.10;99.90;;;;;;5058839;28;20430;-82
2021/06/05 13:09:41;;;;;;;2.33;2.13;;;8.10;99.90;;;;;;5052507;28;20446;-82
2021/06/05 13:12:23;;;;;;;4.85;3.65;;;8.20;99.90;;;;;;5052666;28;20433;-83
2021/06/05 13:15:12;;;;;;;6.80;4.80;;;8.20;99.90;;;;;;5058514;28;20840;-82
2021/06/05 13:18:00;;;;;;;7.13;4.75;;;8.20;99.90;;;;;;5065836;28;20795;-82
2021/06/05 13:20:36;;;;;;;4.93;2.75;;;8.20;99.90;;;;;;5057121;28;20409;-82